createdAt,value
2023-01-06T00:01:18.104Z,101798.59
2023-01-06T00:03:49.503Z,101791.56
2023-01-06T00:06:17.269Z,101803.16
2023-01-06T00:08:45.139Z,101797.97
2023-01-06T00:11:16.327Z,101789.91
2023-01-06T00:13:44.169Z,101775.81
2023-01-06T00:16:19.222Z,101786.59
2023-01-06T00:18:47.703Z,101782.03
2023-01-06T00:21:16.580Z,101782.22
2023-01-06T00:23:44.487Z,101776.84
2023-01-06T00:26:12.710Z,101776.03
2023-01-06T00:28:40.584Z,101769.81
2023-01-06T00:31:09.963Z,101769.81
2023-01-06T00:33:39.855Z,101774.16
2023-01-06T00:36:09.349Z,101767.53
2023-01-06T00:38:38.556Z,101774.38
2023-01-06T00:41:27.988Z,101767.13
2023-01-06T00:43:57.258Z,101770.00
2023-01-06T00:46:28.872Z,101770.00
2023-01-06T00:49:07.846Z,101770.00
2023-01-06T00:51:37.608Z,101771.88
2023-01-06T00:54:05.935Z,101769.19
2023-01-06T00:56:33.969Z,101766.50
2023-01-06T00:59:03.696Z,101766.50
2023-01-06T01:01:31.651Z,101775.19
2023-01-06T01:04:01.055Z,101766.28
2023-01-06T01:06:29.089Z,101766.28
2023-01-06T01:08:58.120Z,101764.44
2023-01-06T01:11:44.520Z,101763.59
2023-01-06T01:14:13.579Z,101759.03
2023-01-06T01:16:41.482Z,101756.56
2023-01-06T01:19:10.984Z,101755.50
2023-01-06T01:21:38.937Z,101756.34
2023-01-06T01:24:07.341Z,101756.56
2023-01-06T01:26:35.206Z,101753.03
2023-01-06T01:29:03.242Z,101731.69
2023-01-06T01:31:31.394Z,101742.25
2023-01-06T01:33:59.227Z,101742.25
2023-01-06T01:36:28.384Z,101743.50
2023-01-06T01:38:57.410Z,101743.28
2023-01-06T01:41:26.190Z,101733.56
2023-01-06T01:43:56.222Z,101736.03
2023-01-06T01:46:28.879Z,101744.53
2023-01-06T01:48:59.556Z,101738.13
2023-01-06T01:51:34.723Z,101732.94
2023-01-06T01:54:08.834Z,101725.69
2023-01-06T01:56:42.918Z,101724.03
2023-01-06T01:59:14.561Z,101706.63
2023-01-06T02:01:42.487Z,101718.03
2023-01-06T02:04:11.636Z,101706.44
2023-01-06T02:06:42.020Z,101698.34
2023-01-06T02:09:17.642Z,101700.22
2023-01-06T02:11:47.516Z,101690.47
2023-01-06T02:14:17.931Z,101695.88
2023-01-06T02:17:00.023Z,101698.34
2023-01-06T02:20:08.124Z,101698.56
2023-01-06T02:23:11.279Z,101696.91
2023-01-06T02:26:05.841Z,101701.47
2023-01-06T02:29:03.622Z,101696.06
2023-01-06T02:31:49.034Z,101698.78
2023-01-06T02:34:27.761Z,101689.03
2023-01-06T02:37:07.125Z,101686.34
2023-01-06T02:39:44.629Z,101669.38
2023-01-06T02:42:20.318Z,101662.94
2023-01-06T02:45:00.094Z,101665.44
2023-01-06T02:47:36.200Z,101661.09
2023-01-06T02:50:17.677Z,101665.44
2023-01-06T02:52:51.822Z,101653.84
2023-01-06T02:55:25.136Z,101646.59
2023-01-06T02:57:58.440Z,101643.06
2023-01-06T03:00:34.591Z,101642.22
2023-01-06T03:03:05.824Z,101643.06
2023-01-06T03:05:38.125Z,101639.53
2023-01-06T03:08:13.473Z,101633.34
2023-01-06T03:10:45.336Z,101641.41
2023-01-06T03:13:18.848Z,101643.06
2023-01-06T03:15:46.776Z,101642.44
2023-01-06T03:18:14.740Z,101637.06
2023-01-06T03:20:44.154Z,101648.66
2023-01-06T03:23:14.286Z,101630.84
2023-01-06T03:25:42.124Z,101631.88
2023-01-06T03:28:10.101Z,101616.78
2023-01-06T03:30:44.360Z,101626.09
2023-01-06T03:33:22.371Z,101633.13
2023-01-06T03:36:01.926Z,101636.66
2023-01-06T03:38:43.510Z,101642.03
2023-01-06T03:41:20.969Z,101630.44
2023-01-06T03:43:59.203Z,101620.91
2023-01-06T03:46:35.860Z,101614.28
2023-01-06T03:49:09.082Z,101621.53
2023-01-06T03:51:49.205Z,101623.41
2023-01-06T03:54:25.986Z,101625.06
2023-01-06T03:56:58.502Z,101630.66
2023-01-06T03:59:30.636Z,101626.09
2023-01-06T04:01:59.540Z,101620.72
2023-01-06T04:04:27.691Z,101612.63
2023-01-06T04:06:56.823Z,101592.97
2023-01-06T04:09:24.611Z,101607.47
2023-01-06T04:12:09.925Z,101596.91
2023-01-06T04:14:37.815Z,101589.84
2023-01-06T04:17:05.626Z,101596.91
2023-01-06T04:19:33.408Z,101598.56
2023-01-06T04:22:02.591Z,101597.09
2023-01-06T04:24:31.726Z,101591.72
2023-01-06T04:26:59.497Z,101597.94
2023-01-06T04:29:27.292Z,101588.00
2023-01-06T04:31:55.065Z,101586.13
2023-01-06T04:34:22.838Z,101567.28
2023-01-06T04:36:50.621Z,101566.88
2023-01-06T04:39:19.751Z,101565.63
2023-01-06T04:41:47.663Z,101555.69
2023-01-06T04:44:15.528Z,101554.66
2023-01-06T04:46:43.316Z,101548.44
2023-01-06T04:49:11.113Z,101547.63
2023-01-06T04:51:38.866Z,101549.50
2023-01-06T04:54:06.705Z,101541.41
2023-01-06T04:56:35.960Z,101543.06
2023-01-06T04:59:03.772Z,101538.72
2023-01-06T05:01:31.675Z,101546.78
2023-01-06T05:03:59.604Z,101522.81
2023-01-06T05:06:27.412Z,101526.31
2023-01-06T05:08:55.179Z,101535.22
2023-01-06T05:11:25.088Z,101542.44
2023-01-06T05:13:55.255Z,101516.56
2023-01-06T05:16:27.221Z,101523.59
2023-01-06T05:18:56.168Z,101519.25
2023-01-06T05:21:24.886Z,101522.78
2023-01-06T05:23:52.967Z,101517.41
2023-01-06T05:26:22.376Z,101516.56
2023-01-06T05:28:50.274Z,101511.22
2023-01-06T05:31:19.617Z,101531.91
2023-01-06T05:33:47.484Z,101528.59
2023-01-06T05:36:16.932Z,101525.06
2023-01-06T05:38:45.257Z,101530.44
2023-01-06T05:41:13.361Z,101536.44
2023-01-06T05:43:41.305Z,101533.97
2023-01-06T05:46:11.093Z,101538.53
2023-01-06T05:48:40.953Z,101544.94
2023-01-06T05:51:11.211Z,101548.47
2023-01-06T05:53:41.425Z,101536.03
2023-01-06T05:56:11.405Z,101541.44
2023-01-06T05:58:41.319Z,101544.72
2023-01-06T06:01:17.074Z,101552.19
2023-01-06T06:03:46.765Z,101542.47
2023-01-06T06:06:15.075Z,101542.47
2023-01-06T06:08:42.967Z,101544.94
2023-01-06T06:11:13.306Z,101541.44
2023-01-06T06:13:45.768Z,101518.25
2023-01-06T06:16:15.077Z,101535.84
2023-01-06T06:18:44.020Z,101543.91
2023-01-06T06:21:14.497Z,101544.94
2023-01-06T06:23:42.767Z,101545.16
2023-01-06T06:26:12.044Z,101538.75
2023-01-06T06:28:41.288Z,101548.47
2023-01-06T06:31:11.155Z,101538.53
2023-01-06T06:33:39.306Z,101549.50
2023-01-06T06:36:11.682Z,101544.13
2023-01-06T06:38:40.796Z,101548.69
2023-01-06T06:41:08.585Z,101547.84
2023-01-06T06:43:36.626Z,101553.22
2023-01-06T06:46:04.851Z,101544.31
2023-01-06T06:48:32.989Z,101537.09
2023-01-06T06:51:02.512Z,101544.31
2023-01-06T06:53:30.656Z,101543.50
2023-01-06T06:56:00.224Z,101549.72
2023-01-06T06:58:28.827Z,101546.19
2023-01-06T07:00:56.793Z,101556.97
2023-01-06T07:03:25.383Z,101548.06
2023-01-06T07:05:53.852Z,101555.31
2023-01-06T07:08:22.042Z,101564.41
2023-01-06T07:10:50.371Z,101558.19
2023-01-06T07:13:19.589Z,101576.00
2023-01-06T07:15:47.588Z,101577.66
2023-01-06T07:18:16.919Z,101571.25
2023-01-06T07:20:48.667Z,101578.28
2023-01-06T07:23:16.569Z,101575.16
2023-01-06T07:25:44.605Z,101568.34
2023-01-06T07:28:12.391Z,101571.25
2023-01-06T07:30:41.642Z,101569.59
2023-01-06T07:33:09.461Z,101576.84
2023-01-06T07:35:37.208Z,101575.38
2023-01-06T07:38:05.546Z,101576.41
2023-01-06T07:40:33.627Z,101574.75
2023-01-06T07:43:05.841Z,101574.97
2023-01-06T07:45:34.466Z,101572.28
2023-01-06T07:48:03.846Z,101578.69
2023-01-06T07:50:32.239Z,101589.25
2023-01-06T07:53:00.979Z,101591.53
2023-01-06T07:55:30.155Z,101594.22
2023-01-06T07:57:58.645Z,101590.28
2023-01-06T08:00:26.600Z,101591.94
2023-01-06T08:02:54.532Z,101609.94
2023-01-06T08:05:23.780Z,101612.66
2023-01-06T08:07:51.629Z,101625.06
2023-01-06T08:10:19.377Z,101626.31
2023-01-06T08:12:47.206Z,101624.84
2023-01-06T08:15:14.962Z,101624.84
2023-01-06T08:17:43.129Z,101620.50
2023-01-06T08:20:11.596Z,101623.19
2023-01-06T08:22:40.784Z,101617.81
2023-01-06T08:25:09.575Z,101624.44
2023-01-06T08:27:37.433Z,101630.03
2023-01-06T08:30:06.620Z,101638.94
2023-01-06T08:32:34.434Z,101631.91
2023-01-06T08:35:02.258Z,101639.34
2023-01-06T08:37:30.034Z,101635.81
2023-01-06T08:39:59.214Z,101639.56
2023-01-06T08:42:26.993Z,101650.31
2023-01-06T08:44:54.874Z,101653.84
2023-01-06T08:47:22.655Z,101650.31
2023-01-06T08:49:50.489Z,101654.66
2023-01-06T08:52:18.475Z,101666.47
2023-01-06T08:54:46.310Z,101668.13
2023-01-06T08:57:16.315Z,101671.63
2023-01-06T08:59:44.463Z,101684.88
2023-01-06T09:02:12.720Z,101676.00
2023-01-06T09:04:40.609Z,101688.41
2023-01-06T09:07:08.456Z,101676.41
2023-01-06T09:09:36.254Z,101679.31
2023-01-06T09:12:04.233Z,101678.47
2023-01-06T09:14:33.644Z,101687.38
2023-01-06T09:17:01.641Z,101692.75
2023-01-06T09:19:29.381Z,101689.25
2023-01-06T09:21:57.164Z,101696.47
2023-01-06T09:24:25.298Z,101697.31
2023-01-06T09:26:53.124Z,101706.22
2023-01-06T09:29:21.422Z,101712.44
2023-01-06T09:31:50.551Z,101714.09
2023-01-06T09:34:18.324Z,101721.38
2023-01-06T09:36:46.608Z,101721.56
2023-01-06T09:39:14.460Z,101729.78
2023-01-06T09:41:56.066Z,101735.13
2023-01-06T09:44:29.727Z,101729.25
2023-01-06T09:47:01.377Z,101740.41
2023-01-06T09:49:34.491Z,101734.75
2023-01-06T09:52:06.438Z,101739.03
2023-01-06T09:54:40.382Z,101730.47
2023-01-06T09:57:15.071Z,101733.53
2023-01-06T09:59:48.946Z,101739.94
2023-01-06T10:02:24.048Z,101746.56
2023-01-06T10:04:51.983Z,101743.00
2023-01-06T10:07:26.118Z,101753.34
2023-01-06T10:10:04.598Z,101753.13
2023-01-06T10:12:49.404Z,101758.09
2023-01-06T10:15:27.800Z,101745.44
2023-01-06T10:18:12.163Z,101749.19
2023-01-06T10:20:55.219Z,101745.09
2023-01-06T10:23:38.349Z,101742.25
2023-01-06T10:26:13.692Z,101744.03
2023-01-06T10:28:44.362Z,101746.38
2023-01-06T10:31:18.526Z,101741.88
2023-01-06T10:33:51.642Z,101749.78
2023-01-06T10:36:32.910Z,101745.88
2023-01-06T10:39:07.286Z,101753.16
2023-01-06T10:41:45.784Z,101744.06
2023-01-06T10:44:15.152Z,101744.06
2023-01-06T10:46:45.492Z,101742.41
2023-01-06T10:49:18.243Z,101750.72
2023-01-06T10:51:52.034Z,101749.47
2023-01-06T10:54:23.867Z,101739.97
2023-01-06T10:56:55.998Z,101743.91
2023-01-06T10:59:23.825Z,101742.25
2023-01-06T11:01:53.097Z,101734.59
2023-01-06T11:04:22.535Z,101743.50
2023-01-06T11:06:52.352Z,101740.63
2023-01-06T11:09:31.171Z,101748.69
2023-01-06T11:12:02.473Z,101741.66
2023-01-06T11:14:33.460Z,101746.00
2023-01-06T11:17:03.255Z,101738.13
2023-01-06T11:19:40.885Z,101734.81
2023-01-06T11:22:33.026Z,101741.03
2023-01-06T11:25:01.005Z,101728.81
2023-01-06T11:27:28.953Z,101741.03
2023-01-06T11:29:56.799Z,101744.56
2023-01-06T11:32:27.769Z,101747.47
2023-01-06T11:35:00.022Z,101738.75
2023-01-06T11:37:37.802Z,101741.44
2023-01-06T11:40:19.785Z,101736.06
2023-01-06T11:42:50.341Z,101734.19
2023-01-06T11:45:34.644Z,101733.38
2023-01-06T11:48:03.528Z,101734.19
2023-01-06T11:50:33.059Z,101739.78
2023-01-06T11:53:02.131Z,101715.75
2023-01-06T11:55:30.736Z,101724.25
2023-01-06T11:58:04.203Z,101718.84
2023-01-06T12:00:39.547Z,101715.13
2023-01-06T12:03:18.020Z,101706.44
2023-01-06T12:05:55.912Z,101716.78
2023-01-06T12:08:27.558Z,101712.44
2023-01-06T12:11:00.877Z,101708.72
2023-01-06T12:13:28.737Z,101705.38
2023-01-06T12:16:02.240Z,101702.69
2023-01-06T12:18:34.142Z,101707.88
2023-01-06T12:21:05.132Z,101706.22
2023-01-06T12:23:36.838Z,101704.34
2023-01-06T12:26:10.114Z,101697.94
2023-01-06T12:28:40.865Z,101698.97
2023-01-06T12:31:14.468Z,101688.19
2023-01-06T12:33:50.002Z,101684.47
2023-01-06T12:36:25.946Z,101681.16
2023-01-06T12:38:56.269Z,101690.06
2023-01-06T12:41:33.258Z,101688.41
2023-01-06T12:44:11.224Z,101695.03
2023-01-06T12:46:44.372Z,101696.47
2023-01-06T12:49:22.835Z,101702.91
2023-01-06T12:51:56.087Z,101702.06
2023-01-06T12:54:29.119Z,101701.03
2023-01-06T12:57:10.529Z,101702.69
2023-01-06T13:00:00.991Z,101710.78
2023-01-06T13:02:48.972Z,101692.97
2023-01-06T13:05:36.996Z,101685.91
2023-01-06T13:08:22.293Z,101714.06
2023-01-06T13:11:00.405Z,101707.03
2023-01-06T13:13:46.440Z,101706.81
2023-01-06T13:16:20.350Z,101712.22
2023-01-06T13:18:59.069Z,101704.97
2023-01-06T13:21:27.818Z,101714.06
2023-01-06T13:24:16.466Z,101712.41
2023-01-06T13:27:10.036Z,101706.00
2023-01-06T13:29:52.980Z,101709.53
2023-01-06T13:32:42.216Z,101713.88
2023-01-06T13:35:29.150Z,101702.47
2023-01-06T13:38:06.386Z,101713.25
2023-01-06T13:40:39.661Z,101706.00
2023-01-06T13:43:15.142Z,101685.50
2023-01-06T13:45:47.506Z,101698.75
2023-01-06T13:48:19.974Z,101696.88
2023-01-06T13:50:48.821Z,101690.66
2023-01-06T13:53:19.200Z,101696.88
2023-01-06T13:55:48.382Z,101686.94
2023-01-06T13:58:37.895Z,101685.25
2023-01-06T14:01:07.631Z,101687.66
2023-01-06T14:03:35.614Z,101685.94
2023-01-06T14:06:04.951Z,101690.03
2023-01-06T14:08:39.645Z,101692.00
2023-01-06T14:11:25.869Z,101681.94
2023-01-06T14:13:56.395Z,101681.84
2023-01-06T14:16:40.667Z,101685.56
2023-01-06T14:19:10.957Z,101689.94
2023-01-06T14:21:38.759Z,101690.41
2023-01-06T14:24:09.329Z,101695.47
2023-01-06T14:27:01.324Z,101688.22
2023-01-06T14:29:59.140Z,101695.97
2023-01-06T14:33:05.331Z,101684.38
2023-01-06T14:35:38.266Z,101689.81
2023-01-06T14:38:08.096Z,101680.69
2023-01-06T14:40:40.695Z,101685.09
2023-01-06T14:43:34.438Z,101687.38
2023-01-06T14:46:09.099Z,101685.13
2023-01-06T14:48:44.312Z,101680.16
2023-01-06T14:51:18.717Z,101679.31
2023-01-06T14:53:52.490Z,101687.63
2023-01-06T14:56:22.548Z,101690.53
2023-01-06T14:58:51.791Z,101696.97
2023-01-06T15:01:24.753Z,101706.09
2023-01-06T15:03:57.755Z,101696.78
2023-01-06T15:06:27.164Z,101698.63
2023-01-06T15:08:55.495Z,101688.50
2023-01-06T15:11:27.971Z,101675.25
2023-01-06T15:13:57.866Z,101673.56
2023-01-06T15:16:35.603Z,101673.34
2023-01-06T15:19:07.059Z,101667.75
2023-01-06T15:21:40.184Z,101664.25
2023-01-06T15:24:19.631Z,101670.88
2023-01-06T15:26:47.695Z,101671.09
2023-01-06T15:29:19.390Z,101668.22
2023-01-06T15:31:49.194Z,101680.22
2023-01-06T15:34:20.283Z,101672.72
2023-01-06T15:36:50.782Z,101672.84
2023-01-06T15:39:26.192Z,101674.22
2023-01-06T15:41:55.128Z,101671.66
2023-01-06T15:44:28.831Z,101681.72
2023-01-06T15:47:03.307Z,101682.03
2023-01-06T15:49:34.540Z,101686.25
2023-01-06T15:52:04.900Z,101678.63
2023-01-06T15:54:35.057Z,101681.13
2023-01-06T15:57:15.739Z,101689.50
2023-01-06T15:59:55.107Z,101685.25
2023-01-06T16:02:26.477Z,101679.56
2023-01-06T16:04:54.671Z,101679.63
2023-01-06T16:07:33.469Z,101681.13
2023-01-06T16:10:01.616Z,101672.69
2023-01-06T16:12:29.539Z,101677.28
2023-01-06T16:14:58.678Z,101673.59
2023-01-06T16:17:30.869Z,101670.72
2023-01-06T16:20:03.169Z,101672.41
2023-01-06T16:22:35.066Z,101671.16
2023-01-06T16:25:05.025Z,101668.91
2023-01-06T16:27:33.051Z,101664.78
2023-01-06T16:30:26.956Z,101666.25
2023-01-06T16:32:56.469Z,101677.22
2023-01-06T16:35:27.485Z,101673.94
2023-01-06T16:37:55.627Z,101675.19
2023-01-06T16:40:25.680Z,101676.44
2023-01-06T16:42:58.950Z,101665.66
2023-01-06T16:45:34.486Z,101665.66
2023-01-06T16:48:02.817Z,101660.47
2023-01-06T16:50:35.385Z,101662.13
2023-01-06T16:53:12.494Z,101664.22
2023-01-06T16:55:42.084Z,101659.84
2023-01-06T16:58:16.037Z,101667.34
2023-01-06T17:00:51.580Z,101660.28
2023-01-06T17:03:21.306Z,101663.34
2023-01-06T17:05:49.200Z,101659.66
2023-01-06T17:08:19.909Z,101662.56
2023-01-06T17:10:47.721Z,101665.47
2023-01-06T17:13:34.913Z,101673.56
2023-01-06T17:16:14.316Z,101674.19
2023-01-06T17:18:52.017Z,101660.94
2023-01-06T17:21:22.287Z,101666.31
2023-01-06T17:23:52.885Z,101662.16
2023-01-06T17:26:24.054Z,101650.53
2023-01-06T17:28:53.891Z,101661.13
2023-01-06T17:31:30.603Z,101656.75
2023-01-06T17:33:59.084Z,101658.41
2023-01-06T17:36:33.786Z,101660.91
2023-01-06T17:39:01.704Z,101664.22
2023-01-06T17:41:30.713Z,101658.00
2023-01-06T17:43:58.589Z,101658.59
2023-01-06T17:46:31.448Z,101656.53
2023-01-06T17:49:08.571Z,101666.25
2023-01-06T17:51:43.557Z,101669.38
2023-01-06T17:54:42.321Z,101657.78
2023-01-06T17:57:14.430Z,101662.28
2023-01-06T17:59:43.046Z,101643.56
2023-01-06T18:02:31.366Z,101660.69
2023-01-06T18:05:03.187Z,101659.91
2023-01-06T18:07:33.275Z,101660.19
2023-01-06T18:10:01.059Z,101656.31
2023-01-06T18:12:29.250Z,101663.88
2023-01-06T18:14:57.087Z,101661.38
2023-01-06T18:17:30.006Z,101651.53
2023-01-06T18:19:59.069Z,101666.28
2023-01-06T18:22:28.973Z,101676.31
2023-01-06T18:25:01.218Z,101668.50
2023-01-06T18:27:33.430Z,101671.25
2023-01-06T18:30:13.607Z,101663.66
2023-01-06T18:32:43.714Z,101661.22
2023-01-06T18:35:15.517Z,101662.06
2023-01-06T18:37:43.991Z,101646.75
2023-01-06T18:40:15.049Z,101656.06
2023-01-06T18:42:45.274Z,101658.38
2023-01-06T18:45:25.223Z,101652.59
2023-01-06T18:47:57.835Z,101659.03
2023-01-06T18:50:36.990Z,101667.34
2023-01-06T18:53:19.578Z,101661.53
2023-01-06T18:55:51.086Z,101656.59
2023-01-06T18:58:41.320Z,101655.53
2023-01-06T19:01:20.639Z,101656.78
2023-01-06T19:04:04.437Z,101649.13
2023-01-06T19:06:46.441Z,101639.22
2023-01-06T19:09:20.032Z,101647.31
2023-01-06T19:11:49.161Z,101648.53
2023-01-06T19:14:19.430Z,101656.00
2023-01-06T19:16:51.851Z,101650.00
2023-01-06T19:19:38.200Z,101649.75
2023-01-06T19:22:18.009Z,101650.41
2023-01-06T19:24:49.375Z,101658.69
2023-01-06T19:27:40.531Z,101641.09
2023-01-06T19:30:40.018Z,101647.47
2023-01-06T19:33:37.626Z,101651.03
2023-01-06T19:36:35.211Z,101658.72
2023-01-06T19:39:16.318Z,101639.50
2023-01-06T19:41:44.113Z,101646.72
2023-01-06T19:44:14.665Z,101643.00
2023-01-06T19:46:44.270Z,101643.97
2023-01-06T19:49:16.811Z,101647.13
2023-01-06T19:51:47.111Z,101649.41
2023-01-06T19:54:24.832Z,101643.19
2023-01-06T19:56:54.176Z,101650.69
2023-01-06T19:59:26.693Z,101651.72
2023-01-06T20:02:00.299Z,101647.59
2023-01-06T20:04:28.960Z,101646.13
2023-01-06T20:06:58.179Z,101654.00
2023-01-06T20:09:26.075Z,101658.78
2023-01-06T20:11:54.279Z,101652.56
2023-01-06T20:14:22.349Z,101659.00
2023-01-06T20:16:50.813Z,101657.13
2023-01-06T20:19:21.458Z,101660.88
2023-01-06T20:21:49.376Z,101662.75
2023-01-06T20:24:18.713Z,101669.19
2023-01-06T20:26:46.565Z,101655.94
2023-01-06T20:29:14.378Z,101657.78
2023-01-06T20:31:42.513Z,101661.31
2023-01-06T20:34:10.432Z,101659.22
2023-01-06T20:36:38.217Z,101652.19
2023-01-06T20:39:06.197Z,101648.66
2023-01-06T20:41:35.578Z,101644.09
2023-01-06T20:44:03.370Z,101650.53
2023-01-06T20:46:31.197Z,101644.31
2023-01-06T20:48:59.514Z,101643.47
2023-01-06T20:51:27.333Z,101637.25
2023-01-06T20:53:55.134Z,101641.00
2023-01-06T20:56:22.928Z,101634.78
2023-01-06T20:58:52.234Z,101633.94
2023-01-06T21:01:20.308Z,101632.28
2023-01-06T21:03:48.253Z,101626.91
2023-01-06T21:06:16.324Z,101625.25
2023-01-06T21:08:44.220Z,101629.59
2023-01-06T21:11:12.034Z,101630.63
2023-01-06T21:13:39.807Z,101628.16
2023-01-06T21:16:09.693Z,101614.69
2023-01-06T21:18:37.697Z,101628.97
2023-01-06T21:21:05.934Z,101628.38
2023-01-06T21:23:33.786Z,101628.38
2023-01-06T21:26:01.594Z,101615.94
2023-01-06T21:28:29.392Z,101625.69
2023-01-06T21:30:57.272Z,101620.50
2023-01-06T21:33:27.657Z,101621.53
2023-01-06T21:35:55.504Z,101618.84
2023-01-06T21:38:23.296Z,101617.19
2023-01-06T21:40:51.258Z,101619.06
2023-01-06T21:43:19.319Z,101617.41
2023-01-06T21:45:48.003Z,101603.34
2023-01-06T21:48:15.889Z,101616.56
2023-01-06T21:50:46.349Z,101622.19
2023-01-06T21:53:15.414Z,101609.81
2023-01-06T21:55:43.321Z,101617.00
2023-01-06T21:58:11.795Z,101612.44
2023-01-06T22:00:39.672Z,101617.00
2023-01-06T22:03:07.763Z,101615.34
2023-01-06T22:05:35.987Z,101621.78
2023-01-06T22:08:06.949Z,101623.66
2023-01-06T22:10:37.592Z,101623.66
2023-01-06T22:13:05.621Z,101617.44
2023-01-06T22:15:34.891Z,101613.91
2023-01-06T22:18:03.620Z,101619.28
2023-01-06T22:20:33.254Z,101620.34
2023-01-06T22:23:03.386Z,101631.13
2023-01-06T22:25:32.626Z,101623.88
2023-01-06T22:28:00.424Z,101623.03
2023-01-06T22:30:30.601Z,101625.72
2023-01-06T22:32:58.773Z,101609.81
2023-01-06T22:35:26.791Z,101619.50
2023-01-06T22:37:54.615Z,101624.09
2023-01-06T22:40:22.538Z,101619.75
2023-01-06T22:42:51.823Z,101619.97
2023-01-06T22:45:19.767Z,101621.63
2023-01-06T22:47:47.569Z,101622.66
2023-01-06T22:50:15.410Z,101612.94
2023-01-06T22:52:43.250Z,101615.00
2023-01-06T22:55:11.337Z,101611.47
2023-01-06T22:57:39.166Z,101615.22
2023-01-06T23:00:14.171Z,101609.00
2023-01-06T23:02:42.211Z,101607.34
2023-01-06T23:05:11.344Z,101605.47
2023-01-06T23:07:40.085Z,101617.31
2023-01-06T23:10:10.963Z,101617.50
2023-01-06T23:12:40.071Z,101614.81
2023-01-06T23:15:10.716Z,101615.63
2023-01-06T23:17:38.876Z,101615.84
2023-01-06T23:20:07.641Z,101620.41
2023-01-06T23:22:35.602Z,101624.97
2023-01-06T23:25:03.427Z,101627.66
2023-01-06T23:27:31.577Z,101620.63
2023-01-06T23:29:59.459Z,101614.66
2023-01-06T23:32:28.699Z,101621.66
2023-01-06T23:34:56.465Z,101614.63
2023-01-06T23:37:24.315Z,101612.97
2023-01-06T23:39:53.604Z,101611.09
2023-01-06T23:42:21.447Z,101595.16
2023-01-06T23:44:49.594Z,101601.38
2023-01-06T23:47:17.518Z,101603.22
2023-01-06T23:49:48.816Z,101605.09
2023-01-06T23:52:16.708Z,101605.09
2023-01-06T23:54:44.530Z,101600.53
2023-01-06T23:57:12.337Z,101597.03
2023-01-06T23:59:40.134Z,101600.53
